Time;durP1;ratioP1;P1;durP2;ratioP2;P2;SDS_P1;SDS_P2;PMS_P1;PMS_P2;Temp;Humidity;BMP_temperature;BMP_pressure;BME280_temperature;BME280_humidity;BME280_pressure;Samples;Min_cycle;Max_cycle;Signal;HPM_P1;HPM_P2
2021/12/25 00:01:48;;;;;;;6.85;5.93;;;9.40;89.10;;;;;;5052360;28;20212;-55
2021/12/25 00:04:15;;;;;;;7.32;5.60;;;9.40;89.50;;;;;;5052243;28;20296;-54
2021/12/25 00:06:42;;;;;;;6.60;5.85;;;9.40;89.80;;;;;;5052137;28;20289;-53
2021/12/25 00:09:10;;;;;;;7.68;6.43;;;9.40;89.20;;;;;;5050899;28;20201;-54
2021/12/25 00:11:38;;;;;;;8.77;7.20;;;9.50;89.50;;;;;;5052263;28;20212;-54
2021/12/25 00:14:11;;;;;;;8.45;6.50;;;9.60;89.20;;;;;;5052221;28;20292;-54
2021/12/25 00:16:39;;;;;;;8.25;6.78;;;9.50;88.50;;;;;;5052062;28;20205;-51
2021/12/25 00:19:06;;;;;;;8.20;5.75;;;9.40;88.90;;;;;;5052080;28;20565;-54
2021/12/25 00:21:33;;;;;;;10.02;7.15;;;9.30;89.20;;;;;;5052093;28;20300;-50
2021/12/25 00:24:00;;;;;;;7.85;6.32;;;9.10;89.90;;;;;;5050795;28;20213;-52
2021/12/25 00:26:47;;;;;;;10.40;7.00;;;8.90;90.80;;;;;;5055309;28;20205;-55
2021/12/25 00:29:34;;;;;;;9.13;6.55;;;8.90;91.30;;;;;;5055609;28;20209;-53
2021/12/25 00:32:15;;;;;;;9.18;7.32;;;8.90;91.10;;;;;;5055544;28;20217;-53
2021/12/25 00:34:43;;;;;;;8.85;6.55;;;9.00;90.80;;;;;;5055670;28;20197;-52
2021/12/25 00:37:11;;;;;;;8.30;6.60;;;9.00;90.90;;;;;;5055516;28;20288;-55
2021/12/25 00:39:38;;;;;;;7.68;6.18;;;8.90;91.10;;;;;;5054168;28;20219;-55
2021/12/25 00:42:06;;;;;;;8.35;6.55;;;8.90;91.30;;;;;;5055097;28;20212;-55
2021/12/25 00:44:35;;;;;;;8.20;6.07;;;8.80;91.50;;;;;;5055317;28;20205;-50
2021/12/25 00:47:02;;;;;;;8.75;6.18;;;8.80;91.60;;;;;;5055283;28;20693;-55
2021/12/25 00:49:29;;;;;;;10.32;6.57;;;8.80;92.00;;;;;;5055273;28;20284;-50
2021/12/25 00:51:56;;;;;;;9.13;6.30;;;8.80;91.90;;;;;;5055137;28;20212;-53
2021/12/25 00:54:23;;;;;;;7.80;6.25;;;8.80;91.60;;;;;;5053744;28;20216;-55
2021/12/25 00:56:50;;;;;;;9.50;6.75;;;8.90;91.60;;;;;;5054787;28;20211;-56
2021/12/25 00:59:17;;;;;;;7.55;6.20;;;8.80;91.80;;;;;;5055017;28;20287;-52
2021/12/25 01:01:46;;;;;;;7.93;6.45;;;8.60;92.40;;;;;;5055000;28;20206;-54
2021/12/25 01:04:13;;;;;;;10.70;7.50;;;8.70;92.80;;;;;;5055000;28;20198;-56
2021/12/25 01:06:40;;;;;;;9.57;7.38;;;8.70;92.70;;;;;;5054859;28;20211;-54
2021/12/25 01:09:07;;;;;;;8.15;6.82;;;8.70;92.50;;;;;;5053476;28;20201;-55
2021/12/25 01:11:35;;;;;;;10.00;6.88;;;8.50;93.30;;;;;;5054331;28;20252;-55
2021/12/25 01:14:08;;;;;;;10.07;6.75;;;8.50;93.70;;;;;;5054809;28;20233;-53
2021/12/25 01:17:03;;;;;;;8.25;6.20;;;8.50;93.90;;;;;;5054674;28;20217;-55
2021/12/25 01:28:09;;;;;;;9.55;7.88;;;8.50;94.00;;;;;;5048967;28;20193;-54
2021/12/25 01:30:48;;;;;;;11.65;9.43;;;8.50;93.90;;;;;;5054356;28;20593;-51
2021/12/25 01:33:45;;;;;;;13.25;9.73;;;8.30;94.30;;;;;;5054478;28;20255;-59
2021/12/25 01:39:07;;;;;;;10.55;8.70;;;8.30;95.10;;;;;;5053048;28;20666;-59
2021/12/25 01:49:52;;;;;;;19.10;10.10;;;8.10;96.20;;;;;;5043399;28;20201;-58
2021/12/25 01:52:26;;;;;;;13.13;9.90;;;8.10;96.30;;;;;;5053878;28;20229;-54
2021/12/25 01:54:53;;;;;;;13.18;10.20;;;8.10;96.30;;;;;;5052609;28;20659;-54
2021/12/25 01:57:20;;;;;;;14.98;10.55;;;8.20;96.20;;;;;;5053624;28;20212;-63
2021/12/25 01:59:48;;;;;;;15.68;10.80;;;8.20;95.90;;;;;;5053832;28;20201;-62
2021/12/25 02:02:15;;;;;;;11.48;9.73;;;8.20;95.80;;;;;;5053874;28;20197;-57
2021/12/25 02:04:42;;;;;;;14.75;10.70;;;8.20;95.70;;;;;;5053821;28;20216;-60
2021/12/25 02:07:09;;;;;;;14.65;10.30;;;8.10;95.90;;;;;;5053770;28;20201;-54
2021/12/25 02:09:38;;;;;;;12.52;10.68;;;8.10;96.20;;;;;;5052158;28;20238;-54
2021/12/25 02:12:06;;;;;;;14.40;10.73;;;8.10;96.00;;;;;;5053323;28;20371;-53
2021/12/25 02:14:35;;;;;;;14.65;10.40;;;8.10;95.70;;;;;;5053515;28;20202;-56
2021/12/25 02:17:14;;;;;;;12.30;9.77;;;8.10;95.80;;;;;;5053514;28;20251;-54
2021/12/25 02:19:48;;;;;;;13.88;10.45;;;8.00;96.00;;;;;;5053411;28;20202;-54
2021/12/25 02:22:17;;;;;;;13.32;10.15;;;7.90;96.10;;;;;;5053444;28;20200;-57
2021/12/25 02:24:44;;;;;;;14.02;10.20;;;7.80;96.30;;;;;;5052127;28;20209;-59
2021/12/25 02:27:12;;;;;;;12.80;10.02;;;7.80;96.30;;;;;;5053170;28;20205;-55
2021/12/25 02:29:39;;;;;;;11.32;9.10;;;7.90;96.30;;;;;;5053349;28;20205;-56
2021/12/25 02:32:07;;;;;;;14.65;10.82;;;7.90;96.30;;;;;;5033256;28;20601;-53
2021/12/25 02:34:34;;;;;;;12.93;9.70;;;7.90;96.30;;;;;;5033405;28;20202;-54
2021/12/25 02:37:03;;;;;;;11.90;9.27;;;7.80;96.30;;;;;;5033247;28;20706;-57
2021/12/25 02:39:30;;;;;;;10.93;9.32;;;7.80;96.30;;;;;;5031986;28;20659;-54
2021/12/25 02:41:57;;;;;;;15.27;9.52;;;7.70;96.30;;;;;;5033113;28;20243;-57
2021/12/25 02:44:24;;;;;;;14.88;10.15;;;7.80;96.30;;;;;;5033255;28;20216;-59
2021/12/25 02:46:54;;;;;;;11.88;9.45;;;7.80;96.30;;;;;;5032928;28;20249;-62
2021/12/25 02:49:21;;;;;;;11.45;9.02;;;7.80;96.30;;;;;;5032863;28;20649;-60
2021/12/25 02:51:48;;;;;;;11.85;9.05;;;7.80;96.30;;;;;;5032890;28;20237;-62
2021/12/25 02:54:16;;;;;;;11.52;8.90;;;7.80;96.30;;;;;;5037062;28;20210;-65
2021/12/25 02:56:43;;;;;;;11.18;7.00;;;7.80;96.30;;;;;;5052887;28;20208;-63
2021/12/25 02:59:13;;;;;;;8.27;6.30;;;7.80;96.30;;;;;;5053026;28;20300;-64
2021/12/25 03:01:40;;;;;;;8.20;6.32;;;7.80;96.30;;;;;;5052832;28;20213;-63
2021/12/25 03:04:07;;;;;;;8.90;6.15;;;7.80;96.30;;;;;;5052748;28;20208;-61
2021/12/25 03:06:36;;;;;;;8.68;7.18;;;7.80;96.30;;;;;;5052899;28;20201;-62
2021/12/25 03:09:04;;;;;;;8.80;7.28;;;7.90;96.30;;;;;;5051704;28;20201;-63
2021/12/25 03:11:33;;;;;;;10.18;7.22;;;7.90;96.30;;;;;;5052478;28;20236;-63
2021/12/25 03:14:12;;;;;;;10.05;8.40;;;7.80;96.30;;;;;;5052750;28;20201;-61
2021/12/25 03:16:39;;;;;;;10.00;7.70;;;7.90;96.30;;;;;;5052682;28;20215;-61
2021/12/25 03:19:10;;;;;;;9.63;7.45;;;7.90;96.30;;;;;;5052782;28;20211;-62
2021/12/25 03:21:37;;;;;;;7.22;6.28;;;7.90;96.30;;;;;;5052683;28;20197;-62
2021/12/25 03:24:04;;;;;;;11.57;7.60;;;7.90;96.30;;;;;;5051516;28;20201;-63
2021/12/25 03:26:33;;;;;;;9.50;7.63;;;7.80;96.30;;;;;;5052520;28;20207;-60
2021/12/25 03:29:03;;;;;;;10.98;7.95;;;7.80;96.30;;;;;;5052582;28;20241;-61
2021/12/25 03:31:31;;;;;;;14.35;7.95;;;7.80;96.30;;;;;;5052502;28;20568;-63
2021/12/25 03:33:58;;;;;;;9.70;7.20;;;7.80;96.30;;;;;;5052584;28;20568;-61
2021/12/25 03:36:25;;;;;;;7.13;6.40;;;7.80;96.30;;;;;;5052639;28;20565;-63
2021/12/25 03:38:52;;;;;;;8.68;6.15;;;7.80;96.30;;;;;;5051405;28;20213;-64
2021/12/25 03:41:21;;;;;;;7.90;5.93;;;7.80;96.30;;;;;;5052425;28;20201;-63
2021/12/25 03:43:49;;;;;;;8.38;6.60;;;7.80;96.30;;;;;;5052359;28;20300;-64
2021/12/25 03:46:18;;;;;;;7.07;5.90;;;7.90;96.30;;;;;;5052536;28;20283;-67
2021/12/25 03:49:02;;;;;;;7.68;6.40;;;7.90;96.30;;;;;;5052457;28;20209;-63
2021/12/25 03:59:52;;;;;;;5.20;4.55;;;7.90;96.30;;;;;;5053388;28;20208;-63
2021/12/25 04:02:25;;;;;;;5.60;4.35;;;8.00;96.30;;;;;;5056104;28;20673;-62
2021/12/25 04:04:52;;;;;;;5.35;3.95;;;8.00;96.30;;;;;;5056085;28;20197;-63
2021/12/25 04:07:42;;;;;;;3.95;3.55;;;8.10;96.30;;;;;;5056028;28;20197;-64
2021/12/25 04:10:09;;;;;;;3.72;3.42;;;8.10;96.30;;;;;;5054674;28;20233;-62
2021/12/25 04:12:36;;;;;;;3.88;3.58;;;8.10;96.30;;;;;;5055818;28;20229;-63
2021/12/25 04:15:05;;;;;;;3.63;3.33;;;8.20;96.30;;;;;;5055815;28;20198;-64
2021/12/25 04:17:31;;;;;;;3.60;3.30;;;8.20;96.30;;;;;;5055909;28;20288;-63
2021/12/25 04:20:02;;;;;;;3.22;2.92;;;8.30;96.00;;;;;;5055774;28;20205;-64
2021/12/25 04:22:35;;;;;;;3.78;3.47;;;8.30;95.80;;;;;;5054611;28;20569;-62
2021/12/25 04:25:02;;;;;;;4.65;3.47;;;8.30;95.20;;;;;;5054215;28;20206;-63
2021/12/25 04:27:29;;;;;;;3.10;2.80;;;8.20;95.20;;;;;;5055624;28;20232;-64
2021/12/25 04:30:02;;;;;;;3.70;3.30;;;8.20;95.50;;;;;;5055660;28;20628;-61
2021/12/25 04:49:34;;;;;;;4.70;4.30;;;7.90;96.30;;;;;;5055420;28;20240;-62
2021/12/25 05:03:01;;;;;;;5.70;5.20;;;7.90;96.30;;;;;;5054936;28;20285;-60
2021/12/25 05:05:30;;;;;;;6.85;6.15;;;7.90;96.30;;;;;;5055002;28;20633;-62
2021/12/25 05:07:57;;;;;;;6.35;5.57;;;7.90;96.30;;;;;;5054840;28;20213;-62
2021/12/25 05:10:24;;;;;;;6.65;5.78;;;8.00;96.30;;;;;;5053059;28;20234;-62
2021/12/25 05:12:51;;;;;;;6.07;5.18;;;7.90;96.30;;;;;;5054803;28;20319;-61
2021/12/25 05:15:18;;;;;;;7.07;6.35;;;8.00;96.30;;;;;;5054921;28;20205;-62
2021/12/25 05:17:45;;;;;;;8.18;6.30;;;7.90;96.30;;;;;;5054703;28;20212;-65
2021/12/25 05:20:12;;;;;;;6.82;5.70;;;7.80;96.30;;;;;;5054634;28;20201;-65
2021/12/25 05:22:41;;;;;;;6.95;5.65;;;7.70;96.30;;;;;;5054492;28;20240;-60
2021/12/25 05:25:10;;;;;;;8.50;6.40;;;7.70;96.30;;;;;;5053328;28;20216;-60
2021/12/25 05:27:36;;;;;;;6.80;5.85;;;7.60;96.30;;;;;;5054572;28;20252;-60
2021/12/25 05:30:04;;;;;;;8.13;6.80;;;7.60;96.30;;;;;;5054345;28;20652;-59
2021/12/25 05:32:31;;;;;;;8.63;7.20;;;7.70;96.30;;;;;;5054353;28;20707;-59
2021/12/25 05:34:58;;;;;;;12.48;8.25;;;7.60;96.30;;;;;;5054498;28;20211;-59
2021/12/25 05:37:25;;;;;;;10.55;7.80;;;7.70;96.30;;;;;;5054399;28;20211;-61
2021/12/25 05:39:53;;;;;;;12.20;8.20;;;7.70;96.30;;;;;;5052918;28;20284;-61
2021/12/25 05:42:22;;;;;;;11.57;7.95;;;7.70;96.30;;;;;;5054182;28;20263;-58
2021/12/25 05:44:50;;;;;;;12.40;8.68;;;7.70;96.30;;;;;;5054194;28;20209;-60
2021/12/25 05:47:17;;;;;;;10.98;8.00;;;7.60;96.30;;;;;;5054237;28;20227;-58
2021/12/25 05:49:44;;;;;;;15.13;9.20;;;7.60;96.30;;;;;;5054256;28;20205;-57
2021/12/25 05:52:11;;;;;;;11.95;8.70;;;7.60;96.30;;;;;;5053959;28;20324;-58
2021/12/25 05:54:38;;;;;;;12.05;8.77;;;7.60;96.30;;;;;;5052403;28;20719;-58
2021/12/25 05:57:06;;;;;;;10.82;8.68;;;7.60;96.30;;;;;;5053992;28;20670;-60
2021/12/25 05:59:33;;;;;;;14.95;9.70;;;7.60;96.30;;;;;;5053946;28;20255;-58
2021/12/25 06:02:00;;;;;;;14.13;9.73;;;7.60;96.30;;;;;;5053900;28;20244;-57
2021/12/25 06:04:27;;;;;;;14.38;9.93;;;7.60;96.30;;;;;;5053893;28;20252;-57
2021/12/25 06:06:54;;;;;;;15.10;11.13;;;7.60;96.30;;;;;;5053860;28;20198;-57
2021/12/25 06:09:20;;;;;;;17.25;10.35;;;7.70;96.30;;;;;;5052237;28;20560;-58
2021/12/25 06:11:47;;;;;;;12.55;9.25;;;7.70;96.30;;;;;;5053569;28;20239;-62
2021/12/25 06:14:20;;;;;;;16.67;9.98;;;7.70;96.30;;;;;;5053725;28;20201;-57
2021/12/25 06:16:48;;;;;;;17.30;11.45;;;7.70;96.30;;;;;;5053628;28;20213;-66
2021/12/25 06:19:15;;;;;;;16.60;10.40;;;7.60;96.30;;;;;;5053684;28;20655;-61
2021/12/25 06:21:42;;;;;;;15.02;9.93;;;7.60;96.30;;;;;;5053175;28;20296;-58
2021/12/25 06:24:10;;;;;;;14.00;10.20;;;7.50;96.30;;;;;;5051646;28;20212;-57
2021/12/25 06:26:38;;;;;;;17.50;11.18;;;7.50;96.30;;;;;;5053422;28;20201;-62
2021/12/25 06:29:05;;;;;;;14.85;10.52;;;7.60;96.30;;;;;;5053357;28;20205;-59
2021/12/25 06:31:34;;;;;;;13.38;9.32;;;7.60;96.30;;;;;;5053293;28;20597;-59
2021/12/25 06:34:02;;;;;;;14.77;9.90;;;7.50;96.30;;;;;;5053406;28;20208;-58
2021/12/25 06:36:29;;;;;;;13.18;9.60;;;7.50;96.30;;;;;;5053333;28;20203;-58
2021/12/25 06:38:56;;;;;;;17.80;11.02;;;7.60;96.30;;;;;;5051570;28;20205;-58
2021/12/25 06:41:23;;;;;;;15.40;10.15;;;7.60;96.30;;;;;;5053231;28;20240;-59
2021/12/25 06:43:49;;;;;;;13.93;10.00;;;7.60;96.30;;;;;;5053196;28;20212;-60
2021/12/25 06:46:16;;;;;;;15.05;11.07;;;7.60;96.30;;;;;;5053192;28;20289;-58
2021/12/25 06:48:45;;;;;;;14.77;9.68;;;7.60;96.30;;;;;;5053229;28;20292;-57
2021/12/25 06:51:11;;;;;;;17.95;10.10;;;7.60;96.30;;;;;;5052832;28;20227;-58
2021/12/25 06:53:38;;;;;;;12.50;9.85;;;7.60;96.30;;;;;;5051383;28;20209;-59
2021/12/25 06:56:05;;;;;;;12.38;9.75;;;7.70;96.30;;;;;;5053061;28;20632;-56
2021/12/25 06:58:33;;;;;;;13.43;9.90;;;7.70;96.30;;;;;;5052918;28;20201;-57
2021/12/25 07:01:01;;;;;;;12.38;8.85;;;7.70;96.30;;;;;;5052960;28;20213;-57
2021/12/25 07:03:28;;;;;;;14.80;10.45;;;7.80;96.30;;;;;;5052871;28;20570;-58
2021/12/25 07:05:56;;;;;;;13.20;10.80;;;7.70;96.30;;;;;;5052681;28;20691;-58
2021/12/25 07:08:23;;;;;;;13.25;9.25;;;7.70;96.30;;;;;;5051427;28;20201;-56
2021/12/25 07:10:50;;;;;;;14.02;7.75;;;7.70;96.30;;;;;;5052701;28;20233;-57
2021/12/25 07:13:19;;;;;;;13.77;8.82;;;7.70;96.30;;;;;;5052781;28;20233;-57
2021/12/25 07:15:46;;;;;;;10.50;6.97;;;7.80;96.30;;;;;;5052706;28;20687;-57
2021/12/25 07:18:13;;;;;;;7.95;7.07;;;7.80;96.30;;;;;;5052722;28;20211;-57
2021/12/25 07:20:40;;;;;;;8.57;6.43;;;7.90;96.30;;;;;;5052599;28;20223;-56
2021/12/25 07:23:09;;;;;;;9.30;6.90;;;8.00;96.30;;;;;;5052528;28;20251;-57
2021/12/25 07:25:36;;;;;;;9.13;6.82;;;8.10;96.30;;;;;;5051265;28;20244;-59
2021/12/25 07:28:02;;;;;;;7.75;5.75;;;8.10;96.30;;;;;;5052898;28;20237;-57
2021/12/25 07:30:29;;;;;;;7.85;6.35;;;8.10;96.30;;;;;;5052687;28;20289;-64
2021/12/25 07:32:56;;;;;;;9.77;7.20;;;8.10;96.30;;;;;;5052586;28;20236;-56
2021/12/25 07:35:24;;;;;;;10.38;7.22;;;8.20;96.30;;;;;;5056442;28;20208;-57
2021/12/25 07:37:51;;;;;;;10.32;7.45;;;8.30;96.30;;;;;;5056631;28;20211;-57
2021/12/25 07:40:19;;;;;;;8.00;6.60;;;8.30;96.30;;;;;;5055241;28;20209;-60
2021/12/25 07:42:46;;;;;;;7.53;6.18;;;8.30;96.30;;;;;;5056540;28;20201;-56
2021/12/25 07:45:14;;;;;;;8.95;6.43;;;8.40;96.30;;;;;;5056548;28;20207;-58
2021/12/25 07:47:47;;;;;;;8.82;7.22;;;8.40;96.10;;;;;;5056380;28;20652;-59
2021/12/25 07:50:14;;;;;;;12.20;7.30;;;8.40;96.10;;;;;;5056410;28;20221;-58
2021/12/25 07:52:42;;;;;;;10.60;7.45;;;8.40;96.10;;;;;;5056272;28;20594;-59
2021/12/25 07:55:09;;;;;;;10.32;7.80;;;8.40;96.10;;;;;;5054936;28;20205;-61
2021/12/25 07:57:38;;;;;;;12.13;8.02;;;8.40;96.30;;;;;;5056310;28;20202;-60
2021/12/25 08:00:09;;;;;;;10.93;7.18;;;8.50;96.30;;;;;;5056168;28;20233;-61
2021/12/25 08:02:36;;;;;;;9.07;6.65;;;8.50;96.10;;;;;;5056192;28;20287;-61
2021/12/25 08:05:04;;;;;;;10.48;7.30;;;8.40;96.00;;;;;;5056190;28;20220;-60
2021/12/25 08:07:31;;;;;;;9.05;6.32;;;8.40;96.30;;;;;;5056129;28;20205;-59
2021/12/25 08:10:11;;;;;;;10.05;7.20;;;8.40;96.30;;;;;;5054421;28;20236;-60
2021/12/25 08:12:40;;;;;;;10.95;7.63;;;8.30;96.30;;;;;;5055853;28;20624;-60
2021/12/25 08:15:07;;;;;;;10.80;7.65;;;8.30;96.30;;;;;;5055895;28;20659;-60
2021/12/25 08:17:34;;;;;;;11.05;8.35;;;8.30;96.30;;;;;;5055942;28;20213;-60
2021/12/25 08:20:01;;;;;;;13.25;8.50;;;8.40;96.30;;;;;;5055827;28;20229;-59
2021/12/25 08:22:28;;;;;;;9.80;7.70;;;8.40;96.30;;;;;;5055757;28;20709;-58
2021/12/25 08:24:55;;;;;;;11.38;7.22;;;8.40;96.30;;;;;;5054364;28;20707;-61
2021/12/25 08:27:22;;;;;;;12.10;8.15;;;8.40;96.30;;;;;;5055593;28;20296;-59
2021/12/25 08:29:50;;;;;;;10.85;7.90;;;8.30;96.30;;;;;;5055719;28;20202;-60
2021/12/25 08:32:17;;;;;;;9.48;7.43;;;8.30;96.30;;;;;;5055658;28;20225;-58
2021/12/25 08:34:44;;;;;;;11.98;8.27;;;8.20;96.30;;;;;;5055609;28;20202;-57
2021/12/25 08:37:12;;;;;;;13.35;8.85;;;8.20;96.30;;;;;;5055562;28;20201;-58
2021/12/25 08:39:39;;;;;;;10.88;8.18;;;8.10;96.30;;;;;;5054052;28;20678;-58
2021/12/25 08:42:08;;;;;;;12.40;8.50;;;8.10;96.30;;;;;;5055275;28;20219;-58
2021/12/25 08:44:39;;;;;;;10.68;7.10;;;8.10;96.30;;;;;;5055210;28;20197;-57
2021/12/25 08:47:11;;;;;;;10.68;7.43;;;8.20;96.30;;;;;;5054804;28;20205;-59
2021/12/25 08:49:40;;;;;;;11.88;8.27;;;8.30;96.30;;;;;;5055243;28;20221;-59
2021/12/25 08:52:12;;;;;;;11.18;7.47;;;8.30;96.30;;;;;;5055103;28;20222;-59
2021/12/25 08:54:39;;;;;;;10.68;7.28;;;8.40;96.30;;;;;;5053636;28;20220;-57
2021/12/25 08:57:07;;;;;;;9.70;7.60;;;8.40;96.30;;;;;;5055203;28;20208;-59
2021/12/25 08:59:35;;;;;;;8.75;7.28;;;8.30;96.30;;;;;;5055123;28;20205;-58
2021/12/25 09:02:05;;;;;;;10.52;7.57;;;8.40;96.30;;;;;;5055033;28;20686;-57
2021/12/25 09:04:33;;;;;;;9.32;6.70;;;8.40;96.30;;;;;;5055112;28;20236;-58
2021/12/25 09:07:00;;;;;;;9.95;7.50;;;8.40;96.30;;;;;;5054904;28;20227;-56
2021/12/25 09:09:27;;;;;;;10.65;7.28;;;8.40;96.30;;;;;;5053462;28;20201;-56
2021/12/25 09:11:54;;;;;;;8.57;6.65;;;8.40;96.30;;;;;;5054794;28;20201;-56
2021/12/25 09:14:21;;;;;;;8.55;6.68;;;8.50;96.30;;;;;;5054883;28;20204;-57
2021/12/25 09:16:48;;;;;;;7.60;6.32;;;8.60;95.90;;;;;;5054881;28;20202;-56
2021/12/25 09:19:15;;;;;;;6.28;5.07;;;8.50;95.50;;;;;;5054816;28;20216;-56
2021/12/25 09:21:43;;;;;;;7.47;5.97;;;8.50;95.70;;;;;;5054647;28;20567;-56
2021/12/25 09:24:10;;;;;;;7.47;6.43;;;8.50;95.60;;;;;;5053267;28;20217;-57
2021/12/25 09:26:37;;;;;;;5.72;5.00;;;8.50;95.60;;;;;;5054777;28;20205;-56
2021/12/25 09:29:04;;;;;;;5.53;4.95;;;8.50;95.30;;;;;;5054653;28;20576;-57
2021/12/25 09:31:32;;;;;;;5.35;4.85;;;8.60;95.40;;;;;;5054527;28;20215;-57
2021/12/25 09:33:58;;;;;;;6.25;5.63;;;8.60;94.90;;;;;;5054393;28;20233;-57
2021/12/25 09:36:26;;;;;;;6.40;5.50;;;8.70;95.10;;;;;;5054320;28;20228;-57
2021/12/25 09:38:55;;;;;;;5.07;4.53;;;8.70;94.80;;;;;;5053069;28;20296;-57
2021/12/25 09:41:21;;;;;;;4.80;4.30;;;8.70;94.30;;;;;;5054376;28;20201;-56
2021/12/25 09:43:49;;;;;;;6.07;4.60;;;8.60;94.40;;;;;;5054334;28;20537;-57
2021/12/25 09:46:17;;;;;;;4.32;3.92;;;8.50;94.80;;;;;;5054297;28;20287;-58
2021/12/25 09:48:44;;;;;;;4.88;4.38;;;8.50;95.10;;;;;;5053949;28;20228;-57
2021/12/25 09:51:11;;;;;;;4.40;4.00;;;8.50;94.90;;;;;;5054181;28;20541;-58
2021/12/25 09:53:38;;;;;;;4.20;3.80;;;8.50;95.00;;;;;;5052567;28;20239;-57
2021/12/25 09:56:07;;;;;;;3.70;3.40;;;8.50;94.70;;;;;;5054047;28;20211;-56
2021/12/25 09:58:34;;;;;;;4.50;4.20;;;8.50;94.40;;;;;;5053976;28;20224;-57
2021/12/25 10:01:01;;;;;;;4.57;4.13;;;8.50;94.50;;;;;;5053890;28;20211;-58
2021/12/25 10:03:45;;;;;;;4.80;4.30;;;8.60;94.50;;;;;;5054038;28;20291;-59
2021/12/25 10:06:28;;;;;;;4.00;3.70;;;8.60;94.10;;;;;;5053825;28;20235;-58
2021/12/25 10:08:55;;;;;;;3.90;3.60;;;8.60;94.30;;;;;;5052449;28;20205;-58
2021/12/25 10:11:26;;;;;;;4.60;4.20;;;8.60;93.90;;;;;;5053573;28;20244;-58
2021/12/25 10:13:55;;;;;;;4.38;4.07;;;8.50;93.90;;;;;;5053430;28;20225;-59
2021/12/25 10:16:24;;;;;;;4.45;4.15;;;8.50;94.10;;;;;;5053540;28;20201;-56
2021/12/25 10:18:52;;;;;;;6.25;4.88;;;8.50;94.10;;;;;;5053607;28;20205;-56
2021/12/25 10:21:21;;;;;;;4.50;4.20;;;8.60;94.50;;;;;;5053553;28;20207;-57
2021/12/25 10:24:04;;;;;;;4.70;4.10;;;8.70;94.20;;;;;;5051967;28;20223;-56
2021/12/25 10:26:33;;;;;;;3.90;3.60;;;8.60;93.90;;;;;;5053430;28;20723;-56
2021/12/25 10:29:00;;;;;;;4.00;3.60;;;8.70;94.10;;;;;;5053563;28;20216;-60
2021/12/25 10:31:32;;;;;;;3.00;2.80;;;8.60;94.10;;;;;;5053497;28;20280;-58
2021/12/25 10:33:59;;;;;;;3.42;3.22;;;8.70;94.30;;;;;;5053382;28;20232;-56
2021/12/25 10:36:30;;;;;;;3.35;3.10;;;8.70;94.10;;;;;;5053310;28;20211;-56
2021/12/25 10:39:01;;;;;;;2.97;2.83;;;8.80;94.10;;;;;;5051650;28;20284;-56
2021/12/25 10:41:29;;;;;;;2.88;2.78;;;8.80;93.60;;;;;;5053288;28;20205;-56
2021/12/25 10:44:14;;;;;;;3.28;3.08;;;8.80;93.10;;;;;;5053262;28;20232;-58
2021/12/25 10:46:52;;;;;;;3.58;3.38;;;8.80;92.60;;;;;;5053091;28;20205;-59
2021/12/25 10:49:20;;;;;;;4.05;3.85;;;8.60;91.80;;;;;;5052885;28;20226;-58
2021/12/25 10:51:47;;;;;;;3.30;3.20;;;8.60;92.90;;;;;;5053273;28;20212;-58
2021/12/25 10:54:17;;;;;;;3.40;3.20;;;8.60;93.50;;;;;;5051556;28;20233;-58
2021/12/25 10:56:47;;;;;;;3.60;3.22;;;8.80;93.70;;;;;;5053049;28;20208;-59
2021/12/25 10:59:18;;;;;;;3.30;3.10;;;8.90;93.50;;;;;;5052989;28;20314;-58
2021/12/25 11:01:48;;;;;;;3.08;2.90;;;9.00;93.40;;;;;;5052765;28;20240;-58
2021/12/25 11:04:35;;;;;;;5.93;3.58;;;9.10;92.60;;;;;;5052999;28;20252;-59
2021/12/25 11:07:13;;;;;;;3.30;3.10;;;9.20;92.90;;;;;;5052804;28;20201;-60
2021/12/25 11:09:40;;;;;;;3.20;3.00;;;9.40;92.30;;;;;;5050939;28;20229;-59
2021/12/25 11:12:21;;;;;;;3.35;3.15;;;9.60;92.70;;;;;;5052699;28;20201;-58
2021/12/25 11:14:50;;;;;;;3.58;3.38;;;9.60;90.80;;;;;;5052778;28;20237;-58
2021/12/25 11:17:24;;;;;;;4.28;3.97;;;9.50;90.20;;;;;;5052749;28;20237;-58
2021/12/25 11:19:58;;;;;;;4.00;3.70;;;9.60;91.70;;;;;;5052661;28;20228;-58
2021/12/25 11:22:26;;;;;;;3.80;3.50;;;9.80;91.60;;;;;;5052715;28;20675;-58
2021/12/25 11:24:54;;;;;;;3.60;3.40;;;9.90;91.50;;;;;;5031287;28;20206;-58
2021/12/25 11:27:22;;;;;;;3.50;3.25;;;10.10;91.60;;;;;;5032736;28;20202;-58
2021/12/25 11:29:50;;;;;;;3.17;2.97;;;10.30;91.20;;;;;;5032660;28;20198;-58
2021/12/25 11:32:21;;;;;;;3.08;2.88;;;10.40;90.10;;;;;;5032703;28;20680;-60
2021/12/25 11:34:48;;;;;;;3.10;2.90;;;10.40;89.80;;;;;;5032547;28;20225;-58
2021/12/25 11:37:16;;;;;;;3.55;3.35;;;10.50;89.60;;;;;;5032462;28;20260;-57
2021/12/25 11:39:44;;;;;;;3.33;3.13;;;10.50;89.70;;;;;;5031293;28;20202;-58
2021/12/25 11:42:12;;;;;;;3.13;2.92;;;10.50;89.70;;;;;;5032667;28;20212;-58
2021/12/25 11:44:42;;;;;;;3.10;2.90;;;10.60;89.80;;;;;;5032653;28;20218;-57
2021/12/25 11:47:32;;;;;;;3.00;2.80;;;10.60;90.00;;;;;;5032556;28;20218;-58
2021/12/25 11:50:01;;;;;;;3.10;2.90;;;10.50;89.40;;;;;;5032645;28;20297;-58
2021/12/25 11:52:33;;;;;;;2.72;2.63;;;10.20;89.10;;;;;;5032703;28;20212;-58
2021/12/25 11:55:49;;;;;;;3.10;2.90;;;10.10;90.00;;;;;;5050876;28;20233;-58
2021/12/25 11:58:39;;;;;;;3.15;2.90;;;10.10;89.50;;;;;;5052196;28;20671;-58
2021/12/25 12:01:22;;;;;;;3.47;3.17;;;10.10;90.10;;;;;;5052353;28;20202;-58
2021/12/25 12:03:54;;;;;;;3.50;3.30;;;10.20;89.80;;;;;;5052419;28;20216;-59
2021/12/25 12:07:18;;;;;;;4.00;3.80;;;10.00;88.50;;;;;;5052283;28;20254;-60
2021/12/25 12:09:54;;;;;;;3.60;3.40;;;9.90;89.50;;;;;;5050756;28;20231;-60
2021/12/25 12:12:24;;;;;;;3.67;3.47;;;9.90;90.10;;;;;;5052346;28;20267;-58
2021/12/25 12:15:13;;;;;;;3.45;3.25;;;10.00;89.60;;;;;;5052087;28;20316;-58
2021/12/25 12:17:42;;;;;;;4.00;3.80;;;9.90;90.30;;;;;;5052304;28;20209;-58
2021/12/25 12:20:17;;;;;;;5.30;4.90;;;10.10;90.00;;;;;;5052323;28;20206;-58
2021/12/25 12:23:18;;;;;;;4.60;4.30;;;10.20;89.70;;;;;;5055771;28;20201;-58
2021/12/25 12:25:59;;;;;;;4.63;4.32;;;10.20;90.00;;;;;;5055144;28;20209;-58
2021/12/25 12:28:48;;;;;;;4.05;3.33;;;10.30;89.80;;;;;;5055784;28;20205;-58
2021/12/25 12:31:39;;;;;;;3.40;3.20;;;10.30;88.60;;;;;;5055745;28;20209;-58
2021/12/25 12:34:35;;;;;;;3.72;3.53;;;10.10;89.00;;;;;;5055580;28;20236;-58
2021/12/25 12:37:29;;;;;;;3.80;3.60;;;10.10;89.10;;;;;;5055593;28;20201;-58
2021/12/25 12:40:19;;;;;;;3.50;3.30;;;9.90;88.90;;;;;;5053907;28;20205;-58
2021/12/25 12:42:54;;;;;;;4.20;4.00;;;9.90;90.30;;;;;;5055501;28;20281;-58
2021/12/25 12:45:24;;;;;;;4.40;4.20;;;9.80;89.30;;;;;;5055450;28;20205;-58
2021/12/25 12:48:18;;;;;;;5.35;4.95;;;9.80;90.30;;;;;;5055310;28;20229;-58
2021/12/25 12:50:48;;;;;;;5.25;4.75;;;9.90;90.50;;;;;;5055265;28;20206;-58
2021/12/25 12:53:17;;;;;;;4.63;4.32;;;10.10;90.40;;;;;;5055023;28;20209;-59
2021/12/25 12:55:46;;;;;;;3.92;3.63;;;10.30;89.90;;;;;;5054497;28;20563;-62
2021/12/25 12:58:16;;;;;;;4.38;4.07;;;10.30;89.30;;;;;;5055205;28;20304;-58
2021/12/25 13:00:45;;;;;;;4.45;4.22;;;10.30;88.20;;;;;;5054988;28;20238;-58
2021/12/25 13:03:13;;;;;;;4.13;3.92;;;10.30;89.00;;;;;;5055032;28;20629;-58
2021/12/25 13:05:42;;;;;;;4.97;4.55;;;10.30;88.80;;;;;;5055088;28;20259;-58
2021/12/25 13:08:18;;;;;;;4.30;4.00;;;10.40;88.80;;;;;;5054971;28;20212;-59
2021/12/25 13:10:51;;;;;;;5.50;5.10;;;10.40;88.50;;;;;;5054292;28;20316;-58
2021/12/25 13:13:22;;;;;;;6.45;5.85;;;10.40;88.80;;;;;;5054706;28;20302;-58
2021/12/25 13:15:57;;;;;;;5.45;5.00;;;10.50;88.70;;;;;;5054809;28;20208;-62
2021/12/25 13:18:30;;;;;;;4.43;4.15;;;10.60;88.50;;;;;;5054806;28;20259;-59
2021/12/25 13:20:58;;;;;;;3.75;3.50;;;10.60;88.40;;;;;;5054770;28;20297;-59
2021/12/25 13:23:29;;;;;;;3.28;3.08;;;10.60;88.30;;;;;;5053326;28;20209;-60
2021/12/25 13:25:58;;;;;;;3.90;3.58;;;10.60;88.30;;;;;;5054459;28;20751;-58
2021/12/25 13:28:28;;;;;;;4.40;4.00;;;10.60;87.30;;;;;;5054687;28;20228;-58
2021/12/25 13:30:56;;;;;;;3.58;3.38;;;10.40;87.40;;;;;;5054404;28;20212;-55
2021/12/25 13:33:26;;;;;;;4.18;3.88;;;10.20;88.30;;;;;;5054215;28;20233;-63
2021/12/25 13:36:03;;;;;;;5.70;4.70;;;10.30;88.80;;;;;;5054505;28;20205;-56
2021/12/25 13:38:44;;;;;;;4.85;4.45;;;10.40;88.80;;;;;;5053064;28;20262;-58
2021/12/25 13:41:11;;;;;;;4.18;3.90;;;10.50;88.70;;;;;;5054271;28;20201;-57
2021/12/25 13:43:38;;;;;;;4.40;4.10;;;10.50;88.40;;;;;;5054441;28;20295;-58
2021/12/25 13:46:05;;;;;;;4.57;4.18;;;10.50;88.20;;;;;;5054311;28;20212;-59
2021/12/25 13:48:38;;;;;;;4.50;4.22;;;10.50;88.30;;;;;;5054218;28;20227;-59
2021/12/25 13:51:05;;;;;;;4.47;4.07;;;10.40;87.90;;;;;;5054205;28;20212;-60
2021/12/25 13:53:33;;;;;;;5.38;4.97;;;10.30;88.50;;;;;;5052745;28;20209;-59
2021/12/25 13:56:08;;;;;;;4.72;4.43;;;10.20;88.40;;;;;;5054002;28;20206;-58
2021/12/25 13:58:35;;;;;;;5.43;5.00;;;10.10;89.00;;;;;;5054085;28;20205;-58
2021/12/25 14:01:02;;;;;;;5.95;5.35;;;10.10;88.80;;;;;;5053999;28;20208;-57
2021/12/25 14:03:30;;;;;;;5.88;5.38;;;10.00;89.40;;;;;;5053770;28;20672;-58